sensor_id;sensor_type;location;lat;lon;timestamp;P1;durP1;ratioP1;P2;durP2;ratioP2
7693;SDS011;3889;48.162;11.510;2023-04-24T00:00:47;1.45;;;1.35;;
7693;SDS011;3889;48.162;11.510;2023-04-24T00:03:16;2.30;;;1.60;;
7693;SDS011;3889;48.162;11.510;2023-04-24T00:05:47;1.67;;;1.58;;
7693;SDS011;3889;48.162;11.510;2023-04-24T00:08:15;1.48;;;1.30;;
7693;SDS011;3889;48.162;11.510;2023-04-24T00:10:43;1.40;;;1.30;;
7693;SDS011;3889;48.162;11.510;2023-04-24T00:13:11;2.65;;;1.30;;
7693;SDS011;3889;48.162;11.510;2023-04-24T00:15:39;1.92;;;1.20;;
7693;SDS011;3889;48.162;11.510;2023-04-24T00:18:07;1.63;;;1.20;;
7693;SDS011;3889;48.162;11.510;2023-04-24T00:20:36;1.52;;;1.35;;
7693;SDS011;3889;48.162;11.510;2023-04-24T00:23:04;1.40;;;1.30;;
7693;SDS011;3889;48.162;11.510;2023-04-24T00:25:32;1.63;;;1.27;;
7693;SDS011;3889;48.162;11.510;2023-04-24T00:28:00;1.40;;;1.30;;
7693;SDS011;3889;48.162;11.510;2023-04-24T00:30:28;1.33;;;1.23;;
7693;SDS011;3889;48.162;11.510;2023-04-24T00:32:56;1.30;;;1.10;;
7693;SDS011;3889;48.162;11.510;2023-04-24T00:35:24;1.10;;;1.00;;
7693;SDS011;3889;48.162;11.510;2023-04-24T00:37:53;1.30;;;1.20;;
7693;SDS011;3889;48.162;11.510;2023-04-24T00:40:21;1.10;;;1.00;;
7693;SDS011;3889;48.162;11.510;2023-04-24T00:42:49;1.33;;;1.13;;
7693;SDS011;3889;48.162;11.510;2023-04-24T00:45:17;1.55;;;1.30;;
7693;SDS011;3889;48.162;11.510;2023-04-24T00:47:45;2.90;;;1.20;;
7693;SDS011;3889;48.162;11.510;2023-04-24T00:50:15;1.15;;;1.05;;
7693;SDS011;3889;48.162;11.510;2023-04-24T00:52:43;1.33;;;1.20;;
7693;SDS011;3889;48.162;11.510;2023-04-24T00:55:13;1.52;;;1.02;;
7693;SDS011;3889;48.162;11.510;2023-04-24T00:57:41;1.85;;;1.10;;
7693;SDS011;3889;48.162;11.510;2023-04-24T01:00:10;1.88;;;1.00;;
7693;SDS011;3889;48.162;11.510;2023-04-24T01:02:39;0.95;;;0.95;;
7693;SDS011;3889;48.162;11.510;2023-04-24T01:05:10;3.85;;;1.10;;
7693;SDS011;3889;48.162;11.510;2023-04-24T01:07:39;1.00;;;1.00;;
7693;SDS011;3889;48.162;11.510;2023-04-24T01:10:10;1.77;;;1.10;;
7693;SDS011;3889;48.162;11.510;2023-04-24T01:12:39;1.10;;;0.97;;
7693;SDS011;3889;48.162;11.510;2023-04-24T01:15:08;1.27;;;0.93;;
7693;SDS011;3889;48.162;11.510;2023-04-24T01:17:36;1.13;;;1.02;;
7693;SDS011;3889;48.162;11.510;2023-04-24T01:20:05;1.10;;;0.80;;
7693;SDS011;3889;48.162;11.510;2023-04-24T01:22:36;1.00;;;0.90;;
7693;SDS011;3889;48.162;11.510;2023-04-24T01:25:04;0.90;;;0.73;;
7693;SDS011;3889;48.162;11.510;2023-04-24T01:27:32;1.00;;;0.88;;
7693;SDS011;3889;48.162;11.510;2023-04-24T01:30:00;1.90;;;0.95;;
7693;SDS011;3889;48.162;11.510;2023-04-24T01:32:28;1.85;;;1.00;;
7693;SDS011;3889;48.162;11.510;2023-04-24T01:34:56;1.88;;;0.98;;
7693;SDS011;3889;48.162;11.510;2023-04-24T01:37:24;0.88;;;0.80;;
7693;SDS011;3889;48.162;11.510;2023-04-24T01:39:54;2.17;;;0.70;;
7693;SDS011;3889;48.162;11.510;2023-04-24T01:42:22;0.75;;;0.75;;
7693;SDS011;3889;48.162;11.510;2023-04-24T01:44:50;0.80;;;0.80;;
7693;SDS011;3889;48.162;11.510;2023-04-24T01:47:18;1.00;;;0.80;;
7693;SDS011;3889;48.162;11.510;2023-04-24T01:49:46;1.07;;;0.93;;
7693;SDS011;3889;48.162;11.510;2023-04-24T01:52:15;1.20;;;0.90;;
7693;SDS011;3889;48.162;11.510;2023-04-24T01:54:44;1.10;;;0.80;;
7693;SDS011;3889;48.162;11.510;2023-04-24T01:57:14;1.00;;;0.90;;
7693;SDS011;3889;48.162;11.510;2023-04-24T01:59:43;1.25;;;0.90;;
7693;SDS011;3889;48.162;11.510;2023-04-24T02:02:11;1.30;;;0.80;;
7693;SDS011;3889;48.162;11.510;2023-04-24T02:04:39;0.70;;;0.70;;
7693;SDS011;3889;48.162;11.510;2023-04-24T02:07:07;1.40;;;0.80;;
7693;SDS011;3889;48.162;11.510;2023-04-24T02:09:35;0.80;;;0.80;;
7693;SDS011;3889;48.162;11.510;2023-04-24T02:12:03;1.30;;;0.90;;
7693;SDS011;3889;48.162;11.510;2023-04-24T02:14:32;0.90;;;0.80;;
7693;SDS011;3889;48.162;11.510;2023-04-24T02:17:00;0.95;;;0.90;;
7693;SDS011;3889;48.162;11.510;2023-04-24T02:19:27;1.20;;;0.75;;
7693;SDS011;3889;48.162;11.510;2023-04-24T02:21:55;1.00;;;0.80;;
7693;SDS011;3889;48.162;11.510;2023-04-24T02:24:23;1.10;;;0.88;;
7693;SDS011;3889;48.162;11.510;2023-04-24T02:26:51;1.40;;;0.93;;
7693;SDS011;3889;48.162;11.510;2023-04-24T02:29:19;1.52;;;1.00;;
7693;SDS011;3889;48.162;11.510;2023-04-24T02:31:48;1.03;;;0.80;;
7693;SDS011;3889;48.162;11.510;2023-04-24T02:34:16;1.25;;;0.88;;
7693;SDS011;3889;48.162;11.510;2023-04-24T02:36:43;1.05;;;0.90;;
7693;SDS011;3889;48.162;11.510;2023-04-24T02:39:11;1.92;;;1.00;;
7693;SDS011;3889;48.162;11.510;2023-04-24T02:41:42;1.00;;;1.00;;
7693;SDS011;3889;48.162;11.510;2023-04-24T02:44:10;2.45;;;0.90;;
7693;SDS011;3889;48.162;11.510;2023-04-24T02:46:38;1.10;;;0.90;;
7693;SDS011;3889;48.162;11.510;2023-04-24T02:49:08;1.85;;;0.80;;
7693;SDS011;3889;48.162;11.510;2023-04-24T02:51:38;2.30;;;0.85;;
7693;SDS011;3889;48.162;11.510;2023-04-24T02:54:07;1.92;;;0.90;;
7693;SDS011;3889;48.162;11.510;2023-04-24T02:56:36;1.90;;;0.90;;
7693;SDS011;3889;48.162;11.510;2023-04-24T02:59:04;1.00;;;0.80;;
7693;SDS011;3889;48.162;11.510;2023-04-24T03:01:31;1.00;;;0.70;;
7693;SDS011;3889;48.162;11.510;2023-04-24T03:03:59;1.40;;;0.80;;
7693;SDS011;3889;48.162;11.510;2023-04-24T03:06:29;0.80;;;0.70;;
7693;SDS011;3889;48.162;11.510;2023-04-24T03:08:57;0.73;;;0.73;;
7693;SDS011;3889;48.162;11.510;2023-04-24T03:11:25;1.00;;;0.80;;
7693;SDS011;3889;48.162;11.510;2023-04-24T03:13:53;1.30;;;0.80;;
7693;SDS011;3889;48.162;11.510;2023-04-24T03:16:21;1.60;;;1.00;;
7693;SDS011;3889;48.162;11.510;2023-04-24T03:18:48;0.90;;;0.80;;
7693;SDS011;3889;48.162;11.510;2023-04-24T03:21:16;1.92;;;0.98;;
7693;SDS011;3889;48.162;11.510;2023-04-24T03:23:45;1.00;;;0.90;;
7693;SDS011;3889;48.162;11.510;2023-04-24T03:26:13;1.02;;;0.88;;
7693;SDS011;3889;48.162;11.510;2023-04-24T03:28:41;1.45;;;0.93;;
7693;SDS011;3889;48.162;11.510;2023-04-24T03:31:09;1.13;;;1.00;;
7693;SDS011;3889;48.162;11.510;2023-04-24T03:33:37;1.40;;;1.05;;
7693;SDS011;3889;48.162;11.510;2023-04-24T03:36:04;0.80;;;0.77;;
7693;SDS011;3889;48.162;11.510;2023-04-24T03:38:32;1.23;;;0.90;;
7693;SDS011;3889;48.162;11.510;2023-04-24T03:41:02;1.35;;;1.00;;
7693;SDS011;3889;48.162;11.510;2023-04-24T03:43:29;1.30;;;1.10;;
7693;SDS011;3889;48.162;11.510;2023-04-24T03:45:59;1.08;;;0.90;;
7693;SDS011;3889;48.162;11.510;2023-04-24T03:48:27;1.35;;;0.88;;
7693;SDS011;3889;48.162;11.510;2023-04-24T03:50:55;2.47;;;1.05;;
7693;SDS011;3889;48.162;11.510;2023-04-24T03:53:23;1.23;;;0.98;;
7693;SDS011;3889;48.162;11.510;2023-04-24T03:55:51;1.87;;;0.90;;
7693;SDS011;3889;48.162;11.510;2023-04-24T03:58:20;1.25;;;1.00;;
7693;SDS011;3889;48.162;11.510;2023-04-24T04:00:48;1.50;;;1.10;;
7693;SDS011;3889;48.162;11.510;2023-04-24T04:03:17;2.08;;;1.00;;
7693;SDS011;3889;48.162;11.510;2023-04-24T04:05:45;1.70;;;1.10;;
7693;SDS011;3889;48.162;11.510;2023-04-24T04:08:13;1.67;;;1.10;;
7693;SDS011;3889;48.162;11.510;2023-04-24T04:10:41;2.05;;;1.08;;
7693;SDS011;3889;48.162;11.510;2023-04-24T04:13:08;1.03;;;0.93;;
7693;SDS011;3889;48.162;11.510;2023-04-24T04:15:38;1.33;;;1.00;;
7693;SDS011;3889;48.162;11.510;2023-04-24T04:18:06;1.15;;;1.00;;
7693;SDS011;3889;48.162;11.510;2023-04-24T04:20:34;2.33;;;0.90;;
7693;SDS011;3889;48.162;11.510;2023-04-24T04:23:02;1.10;;;1.00;;
7693;SDS011;3889;48.162;11.510;2023-04-24T04:25:30;2.15;;;1.10;;
7693;SDS011;3889;48.162;11.510;2023-04-24T04:27:58;1.43;;;1.20;;
7693;SDS011;3889;48.162;11.510;2023-04-24T04:30:26;1.70;;;1.20;;
7693;SDS011;3889;48.162;11.510;2023-04-24T04:32:57;2.05;;;1.17;;
7693;SDS011;3889;48.162;11.510;2023-04-24T04:35:25;1.23;;;0.90;;
7693;SDS011;3889;48.162;11.510;2023-04-24T04:37:52;1.25;;;1.05;;
7693;SDS011;3889;48.162;11.510;2023-04-24T04:40:20;1.50;;;0.93;;
7693;SDS011;3889;48.162;11.510;2023-04-24T04:42:48;1.00;;;0.90;;
7693;SDS011;3889;48.162;11.510;2023-04-24T04:45:19;1.45;;;1.00;;
7693;SDS011;3889;48.162;11.510;2023-04-24T04:47:47;1.30;;;0.90;;
7693;SDS011;3889;48.162;11.510;2023-04-24T04:50:16;1.17;;;1.00;;
7693;SDS011;3889;48.162;11.510;2023-04-24T04:52:45;0.88;;;0.80;;
7693;SDS011;3889;48.162;11.510;2023-04-24T04:55:13;2.00;;;0.90;;
7693;SDS011;3889;48.162;11.510;2023-04-24T04:57:41;1.30;;;1.00;;
7693;SDS011;3889;48.162;11.510;2023-04-24T05:00:09;1.27;;;1.10;;
7693;SDS011;3889;48.162;11.510;2023-04-24T05:02:38;1.90;;;1.00;;
7693;SDS011;3889;48.162;11.510;2023-04-24T05:05:07;1.73;;;1.02;;
7693;SDS011;3889;48.162;11.510;2023-04-24T05:07:37;1.30;;;1.20;;
7693;SDS011;3889;48.162;11.510;2023-04-24T05:10:05;1.10;;;0.90;;
7693;SDS011;3889;48.162;11.510;2023-04-24T05:12:34;0.93;;;0.82;;
7693;SDS011;3889;48.162;11.510;2023-04-24T05:15:01;1.15;;;0.80;;
7693;SDS011;3889;48.162;11.510;2023-04-24T05:17:30;1.30;;;0.90;;
7693;SDS011;3889;48.162;11.510;2023-04-24T05:19:58;1.10;;;0.80;;
7693;SDS011;3889;48.162;11.510;2023-04-24T05:22:26;1.15;;;0.95;;
7693;SDS011;3889;48.162;11.510;2023-04-24T05:24:55;1.10;;;0.80;;
7693;SDS011;3889;48.162;11.510;2023-04-24T05:27:23;0.80;;;0.80;;
7693;SDS011;3889;48.162;11.510;2023-04-24T05:29:51;1.37;;;0.80;;
7693;SDS011;3889;48.162;11.510;2023-04-24T05:32:19;2.15;;;0.77;;
7693;SDS011;3889;48.162;11.510;2023-04-24T05:34:47;1.77;;;0.80;;
7693;SDS011;3889;48.162;11.510;2023-04-24T05:37:17;1.30;;;0.80;;
7693;SDS011;3889;48.162;11.510;2023-04-24T05:39:45;1.10;;;0.90;;
7693;SDS011;3889;48.162;11.510;2023-04-24T05:42:14;0.70;;;0.70;;
7693;SDS011;3889;48.162;11.510;2023-04-24T05:44:42;0.80;;;0.80;;
7693;SDS011;3889;48.162;11.510;2023-04-24T05:47:10;1.30;;;0.70;;
7693;SDS011;3889;48.162;11.510;2023-04-24T05:49:37;1.02;;;0.80;;
7693;SDS011;3889;48.162;11.510;2023-04-24T05:52:05;0.85;;;0.70;;
7693;SDS011;3889;48.162;11.510;2023-04-24T05:54:34;0.82;;;0.82;;
7693;SDS011;3889;48.162;11.510;2023-04-24T05:57:02;2.30;;;1.05;;
7693;SDS011;3889;48.162;11.510;2023-04-24T05:59:36;0.90;;;0.80;;
7693;SDS011;3889;48.162;11.510;2023-04-24T06:02:05;1.85;;;0.95;;
7693;SDS011;3889;48.162;11.510;2023-04-24T06:04:33;0.98;;;0.82;;
7693;SDS011;3889;48.162;11.510;2023-04-24T06:07:02;0.80;;;0.80;;
7693;SDS011;3889;48.162;11.510;2023-04-24T06:09:30;0.73;;;0.70;;
7693;SDS011;3889;48.162;11.510;2023-04-24T06:11:57;0.73;;;0.73;;
7693;SDS011;3889;48.162;11.510;2023-04-24T06:14:26;0.80;;;0.80;;
7693;SDS011;3889;48.162;11.510;2023-04-24T06:16:55;1.20;;;0.88;;
7693;SDS011;3889;48.162;11.510;2023-04-24T06:19:23;0.80;;;0.80;;
7693;SDS011;3889;48.162;11.510;2023-04-24T06:21:51;1.40;;;1.00;;
7693;SDS011;3889;48.162;11.510;2023-04-24T06:24:19;1.20;;;0.80;;
7693;SDS011;3889;48.162;11.510;2023-04-24T06:26:46;1.10;;;0.90;;
7693;SDS011;3889;48.162;11.510;2023-04-24T06:29:14;1.77;;;0.75;;
7693;SDS011;3889;48.162;11.510;2023-04-24T06:31:42;0.80;;;0.80;;
7693;SDS011;3889;48.162;11.510;2023-04-24T06:34:11;0.75;;;0.75;;
7693;SDS011;3889;48.162;11.510;2023-04-24T06:36:39;0.80;;;0.80;;
7693;SDS011;3889;48.162;11.510;2023-04-24T06:39:08;1.40;;;0.70;;
7693;SDS011;3889;48.162;11.510;2023-04-24T06:41:36;0.90;;;0.70;;
7693;SDS011;3889;48.162;11.510;2023-04-24T06:44:04;0.77;;;0.70;;
7693;SDS011;3889;48.162;11.510;2023-04-24T06:46:32;0.65;;;0.65;;
7693;SDS011;3889;48.162;11.510;2023-04-24T06:49:00;0.70;;;0.70;;
7693;SDS011;3889;48.162;11.510;2023-04-24T06:51:29;0.80;;;0.80;;
7693;SDS011;3889;48.162;11.510;2023-04-24T06:53:59;0.80;;;0.77;;
7693;SDS011;3889;48.162;11.510;2023-04-24T06:56:27;0.57;;;0.57;;
7693;SDS011;3889;48.162;11.510;2023-04-24T06:58:55;0.50;;;0.50;;
7693;SDS011;3889;48.162;11.510;2023-04-24T07:01:23;0.60;;;0.60;;
7693;SDS011;3889;48.162;11.510;2023-04-24T07:03:51;0.77;;;0.60;;
7693;SDS011;3889;48.162;11.510;2023-04-24T07:06:20;0.70;;;0.70;;
7693;SDS011;3889;48.162;11.510;2023-04-24T07:08:51;1.20;;;0.75;;
7693;SDS011;3889;48.162;11.510;2023-04-24T07:11:18;0.80;;;0.70;;
7693;SDS011;3889;48.162;11.510;2023-04-24T07:13:46;0.65;;;0.60;;
7693;SDS011;3889;48.162;11.510;2023-04-24T07:16:14;0.80;;;0.60;;
7693;SDS011;3889;48.162;11.510;2023-04-24T07:18:42;0.60;;;0.60;;
7693;SDS011;3889;48.162;11.510;2023-04-24T07:21:10;1.40;;;0.70;;
7693;SDS011;3889;48.162;11.510;2023-04-24T07:23:38;0.70;;;0.70;;
7693;SDS011;3889;48.162;11.510;2023-04-24T07:26:08;1.63;;;0.80;;
7693;SDS011;3889;48.162;11.510;2023-04-24T07:28:36;0.90;;;0.63;;
7693;SDS011;3889;48.162;11.510;2023-04-24T07:31:04;0.75;;;0.70;;
7693;SDS011;3889;48.162;11.510;2023-04-24T07:33:32;0.70;;;0.70;;
7693;SDS011;3889;48.162;11.510;2023-04-24T07:36:02;1.05;;;0.80;;
7693;SDS011;3889;48.162;11.510;2023-04-24T07:38:30;0.80;;;0.60;;
7693;SDS011;3889;48.162;11.510;2023-04-24T07:40:58;0.57;;;0.57;;
7693;SDS011;3889;48.162;11.510;2023-04-24T07:43:27;1.20;;;0.70;;
7693;SDS011;3889;48.162;11.510;2023-04-24T07:45:55;0.70;;;0.70;;
7693;SDS011;3889;48.162;11.510;2023-04-24T07:48:23;0.80;;;0.60;;
7693;SDS011;3889;48.162;11.510;2023-04-24T07:50:52;0.95;;;0.65;;
7693;SDS011;3889;48.162;11.510;2023-04-24T07:53:20;1.20;;;0.70;;
7693;SDS011;3889;48.162;11.510;2023-04-24T07:55:48;1.38;;;0.80;;
7693;SDS011;3889;48.162;11.510;2023-04-24T07:58:16;0.70;;;0.70;;
7693;SDS011;3889;48.162;11.510;2023-04-24T08:00:45;0.80;;;0.80;;
7693;SDS011;3889;48.162;11.510;2023-04-24T08:03:13;1.20;;;0.80;;
7693;SDS011;3889;48.162;11.510;2023-04-24T08:05:44;0.80;;;0.70;;
7693;SDS011;3889;48.162;11.510;2023-04-24T08:08:12;0.77;;;0.70;;
7693;SDS011;3889;48.162;11.510;2023-04-24T08:10:40;0.67;;;0.67;;
7693;SDS011;3889;48.162;11.510;2023-04-24T08:13:08;1.30;;;0.60;;
7693;SDS011;3889;48.162;11.510;2023-04-24T08:15:37;2.10;;;0.90;;
7693;SDS011;3889;48.162;11.510;2023-04-24T08:18:06;1.20;;;0.90;;
7693;SDS011;3889;48.162;11.510;2023-04-24T08:20:35;1.17;;;0.80;;
7693;SDS011;3889;48.162;11.510;2023-04-24T08:23:03;0.70;;;0.70;;
7693;SDS011;3889;48.162;11.510;2023-04-24T08:25:31;0.75;;;0.70;;
7693;SDS011;3889;48.162;11.510;2023-04-24T08:28:01;0.77;;;0.70;;
7693;SDS011;3889;48.162;11.510;2023-04-24T08:30:30;1.55;;;0.85;;
7693;SDS011;3889;48.162;11.510;2023-04-24T08:32:58;0.77;;;0.75;;
7693;SDS011;3889;48.162;11.510;2023-04-24T08:35:27;0.68;;;0.68;;
7693;SDS011;3889;48.162;11.510;2023-04-24T08:37:55;1.30;;;0.73;;
7693;SDS011;3889;48.162;11.510;2023-04-24T08:40:28;1.13;;;0.80;;
7693;SDS011;3889;48.162;11.510;2023-04-24T08:42:57;0.75;;;0.75;;
7693;SDS011;3889;48.162;11.510;2023-04-24T08:45:26;1.08;;;0.98;;
7693;SDS011;3889;48.162;11.510;2023-04-24T08:47:54;1.13;;;1.10;;
7693;SDS011;3889;48.162;11.510;2023-04-24T08:50:22;1.10;;;1.00;;
7693;SDS011;3889;48.162;11.510;2023-04-24T08:52:52;2.53;;;1.40;;
7693;SDS011;3889;48.162;11.510;2023-04-24T08:55:20;1.80;;;1.20;;
7693;SDS011;3889;48.162;11.510;2023-04-24T08:57:50;2.25;;;1.10;;
7693;SDS011;3889;48.162;11.510;2023-04-24T09:00:20;2.50;;;1.25;;
7693;SDS011;3889;48.162;11.510;2023-04-24T09:02:49;1.67;;;1.10;;
7693;SDS011;3889;48.162;11.510;2023-04-24T09:05:17;1.30;;;1.20;;
7693;SDS011;3889;48.162;11.510;2023-04-24T09:07:49;1.80;;;1.20;;
7693;SDS011;3889;48.162;11.510;2023-04-24T09:10:21;1.17;;;1.08;;
7693;SDS011;3889;48.162;11.510;2023-04-24T09:12:51;2.00;;;1.25;;
7693;SDS011;3889;48.162;11.510;2023-04-24T09:15:19;1.65;;;1.13;;
7693;SDS011;3889;48.162;11.510;2023-04-24T09:17:47;1.38;;;1.20;;
7693;SDS011;3889;48.162;11.510;2023-04-24T09:20:15;1.30;;;1.20;;
7693;SDS011;3889;48.162;11.510;2023-04-24T09:22:43;1.60;;;1.20;;
7693;SDS011;3889;48.162;11.510;2023-04-24T09:25:13;1.60;;;1.30;;
7693;SDS011;3889;48.162;11.510;2023-04-24T09:27:42;2.00;;;1.20;;
7693;SDS011;3889;48.162;11.510;2023-04-24T09:30:12;2.60;;;1.23;;
7693;SDS011;3889;48.162;11.510;2023-04-24T09:32:40;1.77;;;1.40;;
7693;SDS011;3889;48.162;11.510;2023-04-24T09:35:09;1.58;;;1.30;;
7693;SDS011;3889;48.162;11.510;2023-04-24T09:37:39;1.50;;;1.40;;
7693;SDS011;3889;48.162;11.510;2023-04-24T09:40:09;1.60;;;1.30;;
7693;SDS011;3889;48.162;11.510;2023-04-24T09:42:40;1.67;;;1.42;;
7693;SDS011;3889;48.162;11.510;2023-04-24T09:45:12;3.03;;;1.63;;
7693;SDS011;3889;48.162;11.510;2023-04-24T09:47:41;1.60;;;1.50;;
7693;SDS011;3889;48.162;11.510;2023-04-24T09:50:11;1.80;;;1.50;;
7693;SDS011;3889;48.162;11.510;2023-04-24T09:52:41;1.50;;;1.35;;
7693;SDS011;3889;48.162;11.510;2023-04-24T09:55:11;1.40;;;1.30;;
7693;SDS011;3889;48.162;11.510;2023-04-24T09:57:48;2.28;;;1.52;;
7693;SDS011;3889;48.162;11.510;2023-04-24T10:00:17;1.65;;;1.30;;
7693;SDS011;3889;48.162;11.510;2023-04-24T10:02:49;1.57;;;1.47;;
7693;SDS011;3889;48.162;11.510;2023-04-24T10:05:19;2.05;;;1.52;;
7693;SDS011;3889;48.162;11.510;2023-04-24T10:07:51;1.60;;;1.20;;
7693;SDS011;3889;48.162;11.510;2023-04-24T10:10:19;3.40;;;1.33;;
7693;SDS011;3889;48.162;11.510;2023-04-24T10:12:48;1.38;;;1.23;;
7693;SDS011;3889;48.162;11.510;2023-04-24T10:15:18;1.40;;;1.30;;
7693;SDS011;3889;48.162;11.510;2023-04-24T10:17:47;1.70;;;1.40;;
7693;SDS011;3889;48.162;11.510;2023-04-24T10:20:19;1.38;;;1.27;;
7693;SDS011;3889;48.162;11.510;2023-04-24T10:22:49;2.33;;;1.30;;
7693;SDS011;3889;48.162;11.510;2023-04-24T10:25:18;1.60;;;1.50;;
7693;SDS011;3889;48.162;11.510;2023-04-24T10:27:49;1.63;;;1.30;;
7693;SDS011;3889;48.162;11.510;2023-04-24T10:30:18;1.65;;;1.50;;
7693;SDS011;3889;48.162;11.510;2023-04-24T10:32:47;2.33;;;1.73;;
7693;SDS011;3889;48.162;11.510;2023-04-24T10:35:15;1.42;;;1.33;;
7693;SDS011;3889;48.162;11.510;2023-04-24T10:37:49;1.35;;;1.25;;
7693;SDS011;3889;48.162;11.510;2023-04-24T10:40:19;1.53;;;1.40;;
7693;SDS011;3889;48.162;11.510;2023-04-24T10:42:54;1.35;;;1.25;;
7693;SDS011;3889;48.162;11.510;2023-04-24T10:45:24;1.77;;;1.38;;
7693;SDS011;3889;48.162;11.510;2023-04-24T10:47:53;2.67;;;1.60;;
7693;SDS011;3889;48.162;11.510;2023-04-24T10:50:25;2.88;;;1.85;;
7693;SDS011;3889;48.162;11.510;2023-04-24T10:52:55;2.77;;;1.57;;
7693;SDS011;3889;48.162;11.510;2023-04-24T10:55:39;2.65;;;1.50;;
7693;SDS011;3889;48.162;11.510;2023-04-24T10:58:10;1.85;;;1.20;;
7693;SDS011;3889;48.162;11.510;2023-04-24T11:00:39;1.42;;;1.15;;
7693;SDS011;3889;48.162;11.510;2023-04-24T11:03:21;2.73;;;1.20;;
7693;SDS011;3889;48.162;11.510;2023-04-24T11:05:53;1.35;;;1.20;;
7693;SDS011;3889;48.162;11.510;2023-04-24T11:08:25;1.30;;;1.20;;
7693;SDS011;3889;48.162;11.510;2023-04-24T11:11:01;1.25;;;0.93;;
7693;SDS011;3889;48.162;11.510;2023-04-24T11:16:40;1.10;;;0.93;;
7693;SDS011;3889;48.162;11.510;2023-04-24T11:19:17;1.17;;;1.00;;
7693;SDS011;3889;48.162;11.510;2023-04-24T11:21:48;2.30;;;1.40;;
7693;SDS011;3889;48.162;11.510;2023-04-24T11:24:29;2.17;;;1.33;;
7693;SDS011;3889;48.162;11.510;2023-04-24T11:27:00;1.83;;;1.42;;
7693;SDS011;3889;48.162;11.510;2023-04-24T11:29:40;1.80;;;1.40;;
7693;SDS011;3889;48.162;11.510;2023-04-24T11:32:18;1.88;;;1.73;;
7693;SDS011;3889;48.162;11.510;2023-04-24T11:34:54;1.60;;;1.42;;
7693;SDS011;3889;48.162;11.510;2023-04-24T11:37:23;1.05;;;0.95;;
7693;SDS011;3889;48.162;11.510;2023-04-24T11:39:52;1.17;;;0.93;;
7693;SDS011;3889;48.162;11.510;2023-04-24T11:42:21;2.60;;;1.30;;
7693;SDS011;3889;48.162;11.510;2023-04-24T11:44:49;1.30;;;1.20;;
7693;SDS011;3889;48.162;11.510;2023-04-24T11:47:20;1.10;;;1.00;;
7693;SDS011;3889;48.162;11.510;2023-04-24T11:49:55;0.98;;;0.90;;
7693;SDS011;3889;48.162;11.510;2023-04-24T11:52:23;1.10;;;1.00;;
7693;SDS011;3889;48.162;11.510;2023-04-24T11:54:51;1.50;;;1.10;;
7693;SDS011;3889;48.162;11.510;2023-04-24T11:57:19;1.20;;;1.02;;
7693;SDS011;3889;48.162;11.510;2023-04-24T11:59:48;2.45;;;1.75;;
7693;SDS011;3889;48.162;11.510;2023-04-24T12:02:21;1.58;;;1.35;;
7693;SDS011;3889;48.162;11.510;2023-04-24T12:04:51;2.00;;;1.20;;
7693;SDS011;3889;48.162;11.510;2023-04-24T12:07:20;1.30;;;1.20;;
7693;SDS011;3889;48.162;11.510;2023-04-24T12:09:49;1.52;;;1.40;;
7693;SDS011;3889;48.162;11.510;2023-04-24T12:12:23;2.15;;;1.38;;
7693;SDS011;3889;48.162;11.510;2023-04-24T12:14:53;1.92;;;1.35;;
7693;SDS011;3889;48.162;11.510;2023-04-24T12:17:27;2.05;;;1.35;;
7693;SDS011;3889;48.162;11.510;2023-04-24T12:19:57;2.15;;;1.38;;
7693;SDS011;3889;48.162;11.510;2023-04-24T12:22:27;1.77;;;1.33;;
7693;SDS011;3889;48.162;11.510;2023-04-24T12:24:55;1.80;;;1.27;;
7693;SDS011;3889;48.162;11.510;2023-04-24T12:27:24;2.20;;;1.40;;
7693;SDS011;3889;48.162;11.510;2023-04-24T12:29:52;1.88;;;1.20;;
7693;SDS011;3889;48.162;11.510;2023-04-24T12:32:22;1.35;;;1.20;;
7693;SDS011;3889;48.162;11.510;2023-04-24T12:34:54;2.25;;;1.60;;
7693;SDS011;3889;48.162;11.510;2023-04-24T12:37:23;1.42;;;1.33;;
7693;SDS011;3889;48.162;11.510;2023-04-24T12:39:58;2.40;;;1.27;;
7693;SDS011;3889;48.162;11.510;2023-04-24T12:42:28;1.90;;;1.27;;
7693;SDS011;3889;48.162;11.510;2023-04-24T12:44:57;1.37;;;1.20;;
7693;SDS011;3889;48.162;11.510;2023-04-24T12:47:27;1.20;;;1.10;;
7693;SDS011;3889;48.162;11.510;2023-04-24T12:49:56;1.10;;;1.00;;
7693;SDS011;3889;48.162;11.510;2023-04-24T12:52:25;1.85;;;1.17;;
7693;SDS011;3889;48.162;11.510;2023-04-24T12:54:54;2.22;;;1.38;;
7693;SDS011;3889;48.162;11.510;2023-04-24T12:57:23;2.22;;;1.30;;
7693;SDS011;3889;48.162;11.510;2023-04-24T12:59:53;1.73;;;1.20;;
7693;SDS011;3889;48.162;11.510;2023-04-24T13:02:21;1.30;;;1.20;;
7693;SDS011;3889;48.162;11.510;2023-04-24T13:04:49;3.50;;;1.35;;
7693;SDS011;3889;48.162;11.510;2023-04-24T13:07:19;1.60;;;1.40;;
7693;SDS011;3889;48.162;11.510;2023-04-24T13:09:48;1.80;;;1.40;;
7693;SDS011;3889;48.162;11.510;2023-04-24T13:12:17;3.00;;;1.50;;
7693;SDS011;3889;48.162;11.510;2023-04-24T13:14:46;2.72;;;1.92;;
7693;SDS011;3889;48.162;11.510;2023-04-24T13:17:14;2.55;;;1.60;;
7693;SDS011;3889;48.162;11.510;2023-04-24T13:19:43;1.90;;;1.40;;
7693;SDS011;3889;48.162;11.510;2023-04-24T13:22:12;1.85;;;1.60;;
7693;SDS011;3889;48.162;11.510;2023-04-24T13:24:41;2.20;;;1.50;;
7693;SDS011;3889;48.162;11.510;2023-04-24T13:27:09;2.03;;;1.50;;
7693;SDS011;3889;48.162;11.510;2023-04-24T13:29:37;2.40;;;1.50;;
7693;SDS011;3889;48.162;11.510;2023-04-24T13:32:05;2.25;;;2.00;;
7693;SDS011;3889;48.162;11.510;2023-04-24T13:34:33;2.35;;;1.80;;
7693;SDS011;3889;48.162;11.510;2023-04-24T13:37:03;2.03;;;1.50;;
7693;SDS011;3889;48.162;11.510;2023-04-24T13:39:31;2.15;;;1.50;;
7693;SDS011;3889;48.162;11.510;2023-04-24T13:42:01;2.65;;;1.48;;
7693;SDS011;3889;48.162;11.510;2023-04-24T13:44:30;1.50;;;1.40;;
7693;SDS011;3889;48.162;11.510;2023-04-24T13:46:58;2.42;;;1.48;;
7693;SDS011;3889;48.162;11.510;2023-04-24T13:49:26;1.70;;;1.50;;
7693;SDS011;3889;48.162;11.510;2023-04-24T13:51:55;1.63;;;1.40;;
7693;SDS011;3889;48.162;11.510;2023-04-24T13:54:23;2.30;;;1.42;;
7693;SDS011;3889;48.162;11.510;2023-04-24T13:56:52;3.47;;;1.38;;
7693;SDS011;3889;48.162;11.510;2023-04-24T13:59:21;2.75;;;1.55;;
7693;SDS011;3889;48.162;11.510;2023-04-24T14:01:49;2.55;;;1.50;;
7693;SDS011;3889;48.162;11.510;2023-04-24T14:04:17;2.05;;;1.48;;
7693;SDS011;3889;48.162;11.510;2023-04-24T14:06:45;1.52;;;1.40;;
7693;SDS011;3889;48.162;11.510;2023-04-24T14:09:13;1.85;;;1.65;;
7693;SDS011;3889;48.162;11.510;2023-04-24T14:11:41;1.88;;;1.63;;
7693;SDS011;3889;48.162;11.510;2023-04-24T14:14:10;1.50;;;1.40;;
7693;SDS011;3889;48.162;11.510;2023-04-24T14:16:39;2.35;;;1.63;;
7693;SDS011;3889;48.162;11.510;2023-04-24T14:19:07;2.25;;;1.58;;
7693;SDS011;3889;48.162;11.510;2023-04-24T14:21:34;2.47;;;1.48;;
7693;SDS011;3889;48.162;11.510;2023-04-24T14:24:02;2.30;;;1.70;;
7693;SDS011;3889;48.162;11.510;2023-04-24T14:26:30;2.15;;;1.83;;
7693;SDS011;3889;48.162;11.510;2023-04-24T14:28:58;2.25;;;1.80;;
7693;SDS011;3889;48.162;11.510;2023-04-24T14:31:41;2.35;;;1.50;;
7693;SDS011;3889;48.162;11.510;2023-04-24T14:34:09;1.52;;;1.30;;
7693;SDS011;3889;48.162;11.510;2023-04-24T14:36:38;2.50;;;1.70;;
7693;SDS011;3889;48.162;11.510;2023-04-24T14:39:06;2.33;;;1.60;;
7693;SDS011;3889;48.162;11.510;2023-04-24T14:41:34;2.50;;;1.80;;
7693;SDS011;3889;48.162;11.510;2023-04-24T14:44:03;2.53;;;1.60;;
7693;SDS011;3889;48.162;11.510;2023-04-24T14:46:31;2.40;;;1.60;;
7693;SDS011;3889;48.162;11.510;2023-04-24T14:49:01;2.58;;;1.80;;
7693;SDS011;3889;48.162;11.510;2023-04-24T14:51:28;2.63;;;1.80;;
7693;SDS011;3889;48.162;11.510;2023-04-24T14:53:57;2.92;;;1.73;;
7693;SDS011;3889;48.162;11.510;2023-04-24T14:56:25;2.63;;;1.50;;
7693;SDS011;3889;48.162;11.510;2023-04-24T14:58:53;3.35;;;2.40;;
7693;SDS011;3889;48.162;11.510;2023-04-24T15:01:21;7.43;;;5.38;;
7693;SDS011;3889;48.162;11.510;2023-04-24T15:03:50;4.55;;;2.13;;
7693;SDS011;3889;48.162;11.510;2023-04-24T15:06:20;3.25;;;2.28;;
7693;SDS011;3889;48.162;11.510;2023-04-24T15:08:48;1.63;;;1.42;;
7693;SDS011;3889;48.162;11.510;2023-04-24T15:11:16;2.05;;;1.83;;
7693;SDS011;3889;48.162;11.510;2023-04-24T15:13:44;2.58;;;1.65;;